sensor_id;sensor_type;location;lat;lon;timestamp;temperature;humidity
52036;DHT22;38046;49.448;32.074;2022-08-30T00:00:41;24.50;65.00
52036;DHT22;38046;49.448;32.074;2022-08-30T00:03:26;24.50;65.10
52036;DHT22;38046;49.448;32.074;2022-08-30T00:05:52;24.50;65.10
52036;DHT22;38046;49.448;32.074;2022-08-30T00:08:18;24.50;65.10
52036;DHT22;38046;49.448;32.074;2022-08-30T00:10:44;24.50;65.10
52036;DHT22;38046;49.448;32.074;2022-08-30T00:13:12;24.40;65.20
52036;DHT22;38046;49.448;32.074;2022-08-30T00:15:41;24.50;65.30
52036;DHT22;38046;49.448;32.074;2022-08-30T00:18:09;24.50;65.30
52036;DHT22;38046;49.448;32.074;2022-08-30T00:20:35;24.50;65.30
52036;DHT22;38046;49.448;32.074;2022-08-30T00:23:01;24.50;65.30
52036;DHT22;38046;49.448;32.074;2022-08-30T00:25:28;24.40;65.40
52036;DHT22;38046;49.448;32.074;2022-08-30T00:27:53;24.50;65.50
52036;DHT22;38046;49.448;32.074;2022-08-30T00:30:20;24.50;65.40
52036;DHT22;38046;49.448;32.074;2022-08-30T00:32:46;24.50;65.50
52036;DHT22;38046;49.448;32.074;2022-08-30T00:35:15;24.50;65.60
52036;DHT22;38046;49.448;32.074;2022-08-30T00:37:40;24.50;65.60
52036;DHT22;38046;49.448;32.074;2022-08-30T00:40:07;24.50;65.60
52036;DHT22;38046;49.448;32.074;2022-08-30T00:42:35;24.50;65.70
52036;DHT22;38046;49.448;32.074;2022-08-30T00:45:19;24.50;65.80
52036;DHT22;38046;49.448;32.074;2022-08-30T00:47:46;24.50;65.60
52036;DHT22;38046;49.448;32.074;2022-08-30T00:50:15;24.40;65.60
52036;DHT22;38046;49.448;32.074;2022-08-30T00:52:44;24.50;65.90
52036;DHT22;38046;49.448;32.074;2022-08-30T00:55:12;24.40;65.90
52036;DHT22;38046;49.448;32.074;2022-08-30T00:57:41;24.40;65.90
52036;DHT22;38046;49.448;32.074;2022-08-30T01:00:08;24.40;65.90
52036;DHT22;38046;49.448;32.074;2022-08-30T01:02:34;24.40;65.90
52036;DHT22;38046;49.448;32.074;2022-08-30T01:05:02;24.40;65.90
52036;DHT22;38046;49.448;32.074;2022-08-30T01:07:29;24.40;66.00
52036;DHT22;38046;49.448;32.074;2022-08-30T01:09:55;24.40;66.10
52036;DHT22;38046;49.448;32.074;2022-08-30T01:12:21;24.30;66.10
52036;DHT22;38046;49.448;32.074;2022-08-30T01:14:47;24.30;66.20
52036;DHT22;38046;49.448;32.074;2022-08-30T01:17:15;24.30;66.30
52036;DHT22;38046;49.448;32.074;2022-08-30T01:19:50;24.30;66.50
52036;DHT22;38046;49.448;32.074;2022-08-30T01:25:04;24.30;66.60
52036;DHT22;38046;49.448;32.074;2022-08-30T01:27:31;24.20;67.30
52036;DHT22;38046;49.448;32.074;2022-08-30T01:29:58;24.20;66.60
52036;DHT22;38046;49.448;32.074;2022-08-30T01:32:26;24.20;66.80
52036;DHT22;38046;49.448;32.074;2022-08-30T01:34:54;24.20;66.80
52036;DHT22;38046;49.448;32.074;2022-08-30T01:37:26;24.10;66.90
52036;DHT22;38046;49.448;32.074;2022-08-30T01:39:54;24.10;67.10
52036;DHT22;38046;49.448;32.074;2022-08-30T01:42:21;24.10;67.20
52036;DHT22;38046;49.448;32.074;2022-08-30T01:44:47;24.20;67.30
52036;DHT22;38046;49.448;32.074;2022-08-30T01:47:14;24.10;67.50
52036;DHT22;38046;49.448;32.074;2022-08-30T01:49:40;24.10;67.40
52036;DHT22;38046;49.448;32.074;2022-08-30T01:52:07;24.10;67.60
52036;DHT22;38046;49.448;32.074;2022-08-30T01:54:35;24.10;67.70
52036;DHT22;38046;49.448;32.074;2022-08-30T01:57:01;24.10;67.70
52036;DHT22;38046;49.448;32.074;2022-08-30T01:59:27;24.10;67.80
52036;DHT22;38046;49.448;32.074;2022-08-30T02:01:53;24.00;67.90
52036;DHT22;38046;49.448;32.074;2022-08-30T02:04:19;24.00;68.00
52036;DHT22;38046;49.448;32.074;2022-08-30T02:06:44;24.00;68.10
52036;DHT22;38046;49.448;32.074;2022-08-30T02:09:11;24.00;68.20
52036;DHT22;38046;49.448;32.074;2022-08-30T02:11:38;24.00;68.30
52036;DHT22;38046;49.448;32.074;2022-08-30T02:14:04;24.00;68.30
52036;DHT22;38046;49.448;32.074;2022-08-30T02:16:30;24.00;68.40
52036;DHT22;38046;49.448;32.074;2022-08-30T02:18:56;24.00;68.50
52036;DHT22;38046;49.448;32.074;2022-08-30T02:21:22;24.00;68.50
52036;DHT22;38046;49.448;32.074;2022-08-30T02:23:49;24.00;68.60
52036;DHT22;38046;49.448;32.074;2022-08-30T02:26:16;24.00;68.60
52036;DHT22;38046;49.448;32.074;2022-08-30T02:28:43;24.00;68.70
52036;DHT22;38046;49.448;32.074;2022-08-30T02:31:09;24.00;68.70
52036;DHT22;38046;49.448;32.074;2022-08-30T02:33:35;24.00;68.90
52036;DHT22;38046;49.448;32.074;2022-08-30T02:36:01;24.00;68.80
52036;DHT22;38046;49.448;32.074;2022-08-30T02:38:28;24.00;69.00
52036;DHT22;38046;49.448;32.074;2022-08-30T02:40:53;24.00;69.00
52036;DHT22;38046;49.448;32.074;2022-08-30T02:43:19;24.00;69.00
52036;DHT22;38046;49.448;32.074;2022-08-30T02:45:45;24.00;69.10
52036;DHT22;38046;49.448;32.074;2022-08-30T02:48:10;23.90;69.00
52036;DHT22;38046;49.448;32.074;2022-08-30T02:50:41;23.90;69.10
52036;DHT22;38046;49.448;32.074;2022-08-30T02:53:07;23.90;69.20
52036;DHT22;38046;49.448;32.074;2022-08-30T02:55:32;23.90;69.30
52036;DHT22;38046;49.448;32.074;2022-08-30T02:57:58;23.90;69.30
52036;DHT22;38046;49.448;32.074;2022-08-30T03:00:24;23.90;69.30
52036;DHT22;38046;49.448;32.074;2022-08-30T03:02:50;23.80;69.40
52036;DHT22;38046;49.448;32.074;2022-08-30T03:05:16;23.80;69.50
52036;DHT22;38046;49.448;32.074;2022-08-30T03:07:43;23.80;69.50
52036;DHT22;38046;49.448;32.074;2022-08-30T03:10:10;23.80;69.60
52036;DHT22;38046;49.448;32.074;2022-08-30T03:12:36;23.70;69.70
52036;DHT22;38046;49.448;32.074;2022-08-30T03:15:02;23.70;69.60
52036;DHT22;38046;49.448;32.074;2022-08-30T03:17:28;23.70;69.70
52036;DHT22;38046;49.448;32.074;2022-08-30T03:19:54;23.70;69.80
52036;DHT22;38046;49.448;32.074;2022-08-30T03:22:20;23.70;69.90
52036;DHT22;38046;49.448;32.074;2022-08-30T03:24:45;23.70;69.90
52036;DHT22;38046;49.448;32.074;2022-08-30T03:27:11;23.80;70.00
52036;DHT22;38046;49.448;32.074;2022-08-30T03:29:37;23.80;69.90
52036;DHT22;38046;49.448;32.074;2022-08-30T03:32:05;23.80;70.10
52036;DHT22;38046;49.448;32.074;2022-08-30T03:34:31;23.80;70.10
52036;DHT22;38046;49.448;32.074;2022-08-30T03:36:57;23.80;70.10
52036;DHT22;38046;49.448;32.074;2022-08-30T03:39:23;23.90;70.10
52036;DHT22;38046;49.448;32.074;2022-08-30T03:41:50;23.90;70.20
52036;DHT22;38046;49.448;32.074;2022-08-30T03:44:15;23.90;70.20
52036;DHT22;38046;49.448;32.074;2022-08-30T03:46:41;23.90;70.20
52036;DHT22;38046;49.448;32.074;2022-08-30T03:49:07;23.90;70.20
52036;DHT22;38046;49.448;32.074;2022-08-30T03:51:33;24.00;70.20
52036;DHT22;38046;49.448;32.074;2022-08-30T03:53:59;24.00;70.10
52036;DHT22;38046;49.448;32.074;2022-08-30T03:56:26;24.00;70.10
52036;DHT22;38046;49.448;32.074;2022-08-30T03:58:51;24.10;70.20
52036;DHT22;38046;49.448;32.074;2022-08-30T04:01:17;24.10;70.20
52036;DHT22;38046;49.448;32.074;2022-08-30T04:03:43;24.10;70.20
52036;DHT22;38046;49.448;32.074;2022-08-30T04:06:09;24.10;70.20
52036;DHT22;38046;49.448;32.074;2022-08-30T04:08:36;24.10;70.20
52036;DHT22;38046;49.448;32.074;2022-08-30T04:11:04;24.10;70.20
52036;DHT22;38046;49.448;32.074;2022-08-30T04:13:29;24.10;70.30
52036;DHT22;38046;49.448;32.074;2022-08-30T04:15:55;24.20;70.30
52036;DHT22;38046;49.448;32.074;2022-08-30T04:18:21;24.20;70.40
52036;DHT22;38046;49.448;32.074;2022-08-30T04:20:47;24.30;70.40
52036;DHT22;38046;49.448;32.074;2022-08-30T04:23:13;24.30;70.40
52036;DHT22;38046;49.448;32.074;2022-08-30T04:25:40;24.40;70.50
52036;DHT22;38046;49.448;32.074;2022-08-30T04:28:07;24.40;70.90
52036;DHT22;38046;49.448;32.074;2022-08-30T04:30:37;24.50;70.20
52036;DHT22;38046;49.448;32.074;2022-08-30T04:33:03;24.50;70.20
52036;DHT22;38046;49.448;32.074;2022-08-30T04:35:28;24.60;70.30
52036;DHT22;38046;49.448;32.074;2022-08-30T04:37:54;24.60;70.10
52036;DHT22;38046;49.448;32.074;2022-08-30T04:40:20;24.70;70.20
52036;DHT22;38046;49.448;32.074;2022-08-30T04:42:45;24.70;70.00
52036;DHT22;38046;49.448;32.074;2022-08-30T04:45:14;24.70;70.00
52036;DHT22;38046;49.448;32.074;2022-08-30T04:47:41;24.80;70.10
52036;DHT22;38046;49.448;32.074;2022-08-30T04:50:10;24.80;70.20
52036;DHT22;38046;49.448;32.074;2022-08-30T04:52:36;24.80;70.40
52036;DHT22;38046;49.448;32.074;2022-08-30T04:55:02;24.80;70.10
52036;DHT22;38046;49.448;32.074;2022-08-30T04:57:28;24.90;70.20
52036;DHT22;38046;49.448;32.074;2022-08-30T04:59:54;24.90;70.10
52036;DHT22;38046;49.448;32.074;2022-08-30T05:02:20;25.00;70.20
52036;DHT22;38046;49.448;32.074;2022-08-30T05:04:46;25.10;70.20
52036;DHT22;38046;49.448;32.074;2022-08-30T05:07:31;25.20;70.10
52036;DHT22;38046;49.448;32.074;2022-08-30T05:09:57;25.40;70.00
52036;DHT22;38046;49.448;32.074;2022-08-30T05:12:23;25.50;69.80
52036;DHT22;38046;49.448;32.074;2022-08-30T05:14:49;25.70;69.50
52036;DHT22;38046;49.448;32.074;2022-08-30T05:17:15;25.90;69.40
52036;DHT22;38046;49.448;32.074;2022-08-30T05:19:41;26.10;69.10
52036;DHT22;38046;49.448;32.074;2022-08-30T05:22:07;26.30;68.80
52036;DHT22;38046;49.448;32.074;2022-08-30T05:24:33;26.50;68.70
52036;DHT22;38046;49.448;32.074;2022-08-30T05:26:59;26.60;68.50
52036;DHT22;38046;49.448;32.074;2022-08-30T05:29:25;26.80;68.40
52036;DHT22;38046;49.448;32.074;2022-08-30T05:31:50;26.90;68.10
52036;DHT22;38046;49.448;32.074;2022-08-30T05:34:16;26.90;68.20
52036;DHT22;38046;49.448;32.074;2022-08-30T05:36:42;26.90;68.10
52036;DHT22;38046;49.448;32.074;2022-08-30T05:39:09;27.00;68.20
52036;DHT22;38046;49.448;32.074;2022-08-30T05:41:36;27.00;68.00
52036;DHT22;38046;49.448;32.074;2022-08-30T05:44:04;27.10;68.10
52036;DHT22;38046;49.448;32.074;2022-08-30T05:46:30;27.20;67.90
52036;DHT22;38046;49.448;32.074;2022-08-30T05:49:00;27.30;67.70
52036;DHT22;38046;49.448;32.074;2022-08-30T05:51:27;27.30;67.60
52036;DHT22;38046;49.448;32.074;2022-08-30T05:53:54;27.40;67.40
52036;DHT22;38046;49.448;32.074;2022-08-30T05:56:22;27.30;67.60
52036;DHT22;38046;49.448;32.074;2022-08-30T05:58:49;27.30;67.70
52036;DHT22;38046;49.448;32.074;2022-08-30T06:01:20;27.30;67.80
52036;DHT22;38046;49.448;32.074;2022-08-30T06:03:46;27.30;68.00
52036;DHT22;38046;49.448;32.074;2022-08-30T06:06:11;27.20;68.10
52036;DHT22;38046;49.448;32.074;2022-08-30T06:08:37;27.20;68.20
52036;DHT22;38046;49.448;32.074;2022-08-30T06:11:03;27.20;68.30
52036;DHT22;38046;49.448;32.074;2022-08-30T06:13:28;27.20;68.40
52036;DHT22;38046;49.448;32.074;2022-08-30T06:15:54;27.20;68.40
52036;DHT22;38046;49.448;32.074;2022-08-30T06:18:20;27.10;68.40
52036;DHT22;38046;49.448;32.074;2022-08-30T06:20:45;27.10;68.50
52036;DHT22;38046;49.448;32.074;2022-08-30T06:23:15;27.10;68.50
52036;DHT22;38046;49.448;32.074;2022-08-30T06:25:43;27.10;68.70
52036;DHT22;38046;49.448;32.074;2022-08-30T06:28:09;27.10;68.70
52036;DHT22;38046;49.448;32.074;2022-08-30T06:30:37;27.10;68.70
52036;DHT22;38046;49.448;32.074;2022-08-30T06:33:09;27.10;68.60
52036;DHT22;38046;49.448;32.074;2022-08-30T06:35:35;27.10;68.50
52036;DHT22;38046;49.448;32.074;2022-08-30T06:38:01;27.10;68.50
52036;DHT22;38046;49.448;32.074;2022-08-30T06:40:27;27.10;68.70
52036;DHT22;38046;49.448;32.074;2022-08-30T06:42:53;27.10;68.60
52036;DHT22;38046;49.448;32.074;2022-08-30T06:45:19;27.10;68.60
52036;DHT22;38046;49.448;32.074;2022-08-30T06:47:46;27.10;68.60
52036;DHT22;38046;49.448;32.074;2022-08-30T06:50:13;27.10;68.60
52036;DHT22;38046;49.448;32.074;2022-08-30T06:52:40;27.10;68.80
52036;DHT22;38046;49.448;32.074;2022-08-30T06:55:08;27.10;68.80
52036;DHT22;38046;49.448;32.074;2022-08-30T06:57:33;27.10;68.90
52036;DHT22;38046;49.448;32.074;2022-08-30T06:59:59;27.10;68.80
52036;DHT22;38046;49.448;32.074;2022-08-30T07:02:26;27.10;68.80
52036;DHT22;38046;49.448;32.074;2022-08-30T07:04:53;27.10;68.80
52036;DHT22;38046;49.448;32.074;2022-08-30T07:07:19;27.10;68.80
52036;DHT22;38046;49.448;32.074;2022-08-30T07:09:45;27.10;68.80
52036;DHT22;38046;49.448;32.074;2022-08-30T07:12:11;27.10;68.80
52036;DHT22;38046;49.448;32.074;2022-08-30T07:14:39;27.10;68.80
52036;DHT22;38046;49.448;32.074;2022-08-30T07:17:05;27.10;68.80
52036;DHT22;38046;49.448;32.074;2022-08-30T07:19:55;27.10;68.80
52036;DHT22;38046;49.448;32.074;2022-08-30T07:22:20;27.10;68.80
52036;DHT22;38046;49.448;32.074;2022-08-30T07:24:46;27.10;69.00
52036;DHT22;38046;49.448;32.074;2022-08-30T07:27:13;27.10;69.00
52036;DHT22;38046;49.448;32.074;2022-08-30T07:29:39;27.10;69.10
52036;DHT22;38046;49.448;32.074;2022-08-30T07:32:05;27.20;69.20
52036;DHT22;38046;49.448;32.074;2022-08-30T07:34:30;27.20;69.30
52036;DHT22;38046;49.448;32.074;2022-08-30T07:36:56;27.20;69.30
52036;DHT22;38046;49.448;32.074;2022-08-30T07:39:21;27.20;69.30
52036;DHT22;38046;49.448;32.074;2022-08-30T07:41:47;27.20;69.40
52036;DHT22;38046;49.448;32.074;2022-08-30T07:44:14;27.20;69.40
52036;DHT22;38046;49.448;32.074;2022-08-30T07:46:40;27.20;69.50
52036;DHT22;38046;49.448;32.074;2022-08-30T07:49:06;27.20;69.60
52036;DHT22;38046;49.448;32.074;2022-08-30T07:54:54;27.30;69.70
52036;DHT22;38046;49.448;32.074;2022-08-30T07:57:21;27.30;69.50
52036;DHT22;38046;49.448;32.074;2022-08-30T07:59:47;27.30;69.40
52036;DHT22;38046;49.448;32.074;2022-08-30T08:02:12;27.30;69.50
52036;DHT22;38046;49.448;32.074;2022-08-30T08:04:38;27.30;69.50
52036;DHT22;38046;49.448;32.074;2022-08-30T08:07:04;27.20;69.60
52036;DHT22;38046;49.448;32.074;2022-08-30T08:09:29;27.20;69.70
52036;DHT22;38046;49.448;32.074;2022-08-30T08:11:55;27.30;69.60
52036;DHT22;38046;49.448;32.074;2022-08-30T08:14:21;27.30;69.70
52036;DHT22;38046;49.448;32.074;2022-08-30T08:16:48;27.20;69.70
52036;DHT22;38046;49.448;32.074;2022-08-30T08:19:14;27.20;69.90
52036;DHT22;38046;49.448;32.074;2022-08-30T08:21:40;27.20;69.80
52036;DHT22;38046;49.448;32.074;2022-08-30T08:24:06;27.20;69.80
52036;DHT22;38046;49.448;32.074;2022-08-30T08:26:34;27.20;69.90
52036;DHT22;38046;49.448;32.074;2022-08-30T08:29:01;27.20;69.90
52036;DHT22;38046;49.448;32.074;2022-08-30T08:31:27;27.20;70.00
52036;DHT22;38046;49.448;32.074;2022-08-30T08:33:54;27.20;69.90
52036;DHT22;38046;49.448;32.074;2022-08-30T08:36:20;27.20;69.90
52036;DHT22;38046;49.448;32.074;2022-08-30T08:38:46;27.30;69.90
52036;DHT22;38046;49.448;32.074;2022-08-30T08:44:12;27.30;69.80
52036;DHT22;38046;49.448;32.074;2022-08-30T08:47:01;27.30;70.00
52036;DHT22;38046;49.448;32.074;2022-08-30T08:49:28;27.30;69.90
52036;DHT22;38046;49.448;32.074;2022-08-30T08:51:54;27.30;69.90
52036;DHT22;38046;49.448;32.074;2022-08-30T08:54:56;27.20;70.00
52036;DHT22;38046;49.448;32.074;2022-08-30T08:57:23;27.30;70.20
52036;DHT22;38046;49.448;32.074;2022-08-30T08:59:50;27.30;70.30
52036;DHT22;38046;49.448;32.074;2022-08-30T09:02:33;27.20;70.20
52036;DHT22;38046;49.448;32.074;2022-08-30T09:05:02;27.20;70.30
52036;DHT22;38046;49.448;32.074;2022-08-30T09:07:35;27.20;70.40
52036;DHT22;38046;49.448;32.074;2022-08-30T09:10:03;27.20;70.40
52036;DHT22;38046;49.448;32.074;2022-08-30T09:12:30;27.20;70.50
52036;DHT22;38046;49.448;32.074;2022-08-30T09:18:07;27.10;70.50
52036;DHT22;38046;49.448;32.074;2022-08-30T09:20:43;27.20;70.70
52036;DHT22;38046;49.448;32.074;2022-08-30T09:25:59;27.10;70.80
52036;DHT22;38046;49.448;32.074;2022-08-30T09:28:29;27.10;70.90
52036;DHT22;38046;49.448;32.074;2022-08-30T09:33:23;27.00;70.80
52036;DHT22;38046;49.448;32.074;2022-08-30T09:35:50;27.00;70.80
52036;DHT22;38046;49.448;32.074;2022-08-30T09:38:29;27.00;70.90
52036;DHT22;38046;49.448;32.074;2022-08-30T09:41:00;27.00;70.90
52036;DHT22;38046;49.448;32.074;2022-08-30T09:43:27;27.00;71.00
52036;DHT22;38046;49.448;32.074;2022-08-30T10:15:46;26.80;71.10
52036;DHT22;38046;49.448;32.074;2022-08-30T10:21:06;26.80;71.30
52036;DHT22;38046;49.448;32.074;2022-08-30T10:23:40;26.80;71.30
52036;DHT22;38046;49.448;32.074;2022-08-30T10:26:16;26.80;71.40
52036;DHT22;38046;49.448;32.074;2022-08-30T10:29:00;26.80;71.20
52036;DHT22;38046;49.448;32.074;2022-08-30T10:31:32;26.80;71.40
52036;DHT22;38046;49.448;32.074;2022-08-30T10:34:07;26.80;71.10
52036;DHT22;38046;49.448;32.074;2022-08-30T10:36:57;26.90;70.90
52036;DHT22;38046;49.448;32.074;2022-08-30T10:39:27;26.90;70.80
52036;DHT22;38046;49.448;32.074;2022-08-30T10:42:07;26.90;70.60
52036;DHT22;38046;49.448;32.074;2022-08-30T10:44:39;26.90;70.40
52036;DHT22;38046;49.448;32.074;2022-08-30T10:49:59;26.90;70.10
52036;DHT22;38046;49.448;32.074;2022-08-30T10:54:58;26.90;70.30
52036;DHT22;38046;49.448;32.074;2022-08-30T10:57:25;26.90;70.20
52036;DHT22;38046;49.448;32.074;2022-08-30T10:59:55;27.00;70.30
52036;DHT22;38046;49.448;32.074;2022-08-30T11:02:30;26.90;70.20
52036;DHT22;38046;49.448;32.074;2022-08-30T11:13:40;26.90;70.30
52036;DHT22;38046;49.448;32.074;2022-08-30T11:16:13;27.00;70.40
52036;DHT22;38046;49.448;32.074;2022-08-30T11:18:52;27.00;70.70
52036;DHT22;38046;49.448;32.074;2022-08-30T11:21:52;27.00;70.80
52036;DHT22;38046;49.448;32.074;2022-08-30T11:24:21;27.00;70.70
52036;DHT22;38046;49.448;32.074;2022-08-30T11:37:35;26.90;70.40
52036;DHT22;38046;49.448;32.074;2022-08-30T11:42:46;27.00;70.30
52036;DHT22;38046;49.448;32.074;2022-08-30T11:47:55;26.90;70.50
52036;DHT22;38046;49.448;32.074;2022-08-30T11:53:41;26.90;70.40
52036;DHT22;38046;49.448;32.074;2022-08-30T11:56:15;26.90;70.30
52036;DHT22;38046;49.448;32.074;2022-08-30T12:04:08;26.80;70.30
52036;DHT22;38046;49.448;32.074;2022-08-30T12:11:57;26.90;70.30
52036;DHT22;38046;49.448;32.074;2022-08-30T12:14:51;26.80;70.20
52036;DHT22;38046;49.448;32.074;2022-08-30T12:17:29;26.90;70.10
52036;DHT22;38046;49.448;32.074;2022-08-30T12:20:28;26.90;70.10
52036;DHT22;38046;49.448;32.074;2022-08-30T12:22:56;26.90;70.10
52036;DHT22;38046;49.448;32.074;2022-08-30T12:25:30;26.90;70.20
52036;DHT22;38046;49.448;32.074;2022-08-30T12:28:11;26.90;70.20
52036;DHT22;38046;49.448;32.074;2022-08-30T12:30:37;26.90;70.20
52036;DHT22;38046;49.448;32.074;2022-08-30T12:33:05;26.90;70.20
52036;DHT22;38046;49.448;32.074;2022-08-30T12:35:33;26.90;70.20
52036;DHT22;38046;49.448;32.074;2022-08-30T12:38:05;26.90;70.10
52036;DHT22;38046;49.448;32.074;2022-08-30T12:40:31;26.90;70.00
52036;DHT22;38046;49.448;32.074;2022-08-30T12:43:03;26.90;70.00
52036;DHT22;38046;49.448;32.074;2022-08-30T12:45:47;26.80;69.70
52036;DHT22;38046;49.448;32.074;2022-08-30T12:48:16;26.90;69.80
52036;DHT22;38046;49.448;32.074;2022-08-30T12:50:54;26.80;69.70
52036;DHT22;38046;49.448;32.074;2022-08-30T12:53:40;26.90;69.80
52036;DHT22;38046;49.448;32.074;2022-08-30T12:56:12;26.90;69.60
52036;DHT22;38046;49.448;32.074;2022-08-30T12:58:47;26.90;69.60
52036;DHT22;38046;49.448;32.074;2022-08-30T13:09:09;26.90;69.60
52036;DHT22;38046;49.448;32.074;2022-08-30T13:11:35;26.90;69.60
52036;DHT22;38046;49.448;32.074;2022-08-30T13:19:45;26.90;69.20
52036;DHT22;38046;49.448;32.074;2022-08-30T13:22:40;26.90;69.40
52036;DHT22;38046;49.448;32.074;2022-08-30T13:25:07;26.90;69.50
52036;DHT22;38046;49.448;32.074;2022-08-30T13:27:34;26.90;69.60
52036;DHT22;38046;49.448;32.074;2022-08-30T13:30:27;26.90;69.60
52036;DHT22;38046;49.448;32.074;2022-08-30T13:32:53;26.90;69.40
52036;DHT22;38046;49.448;32.074;2022-08-30T13:35:19;26.90;69.40
52036;DHT22;38046;49.448;32.074;2022-08-30T13:37:44;26.90;69.40
52036;DHT22;38046;49.448;32.074;2022-08-30T13:40:12;26.90;69.50
52036;DHT22;38046;49.448;32.074;2022-08-30T13:42:38;26.90;69.40
52036;DHT22;38046;49.448;32.074;2022-08-30T13:45:05;26.90;69.30
52036;DHT22;38046;49.448;32.074;2022-08-30T13:47:31;26.90;69.20
52036;DHT22;38046;49.448;32.074;2022-08-30T13:49:56;26.90;69.10
52036;DHT22;38046;49.448;32.074;2022-08-30T13:52:22;26.90;69.10
52036;DHT22;38046;49.448;32.074;2022-08-30T13:54:54;26.90;69.00
52036;DHT22;38046;49.448;32.074;2022-08-30T13:57:23;26.90;69.10
52036;DHT22;38046;49.448;32.074;2022-08-30T13:59:49;26.90;69.30
52036;DHT22;38046;49.448;32.074;2022-08-30T14:02:15;26.90;69.20
52036;DHT22;38046;49.448;32.074;2022-08-30T14:04:40;26.90;69.20
52036;DHT22;38046;49.448;32.074;2022-08-30T14:07:06;26.90;69.30
52036;DHT22;38046;49.448;32.074;2022-08-30T14:09:32;26.90;69.30
52036;DHT22;38046;49.448;32.074;2022-08-30T14:11:57;26.90;69.20
52036;DHT22;38046;49.448;32.074;2022-08-30T14:14:23;26.90;68.90
52036;DHT22;38046;49.448;32.074;2022-08-30T14:16:49;26.90;68.70
52036;DHT22;38046;49.448;32.074;2022-08-30T14:19:16;26.90;68.60
52036;DHT22;38046;49.448;32.074;2022-08-30T14:21:43;26.90;68.50
52036;DHT22;38046;49.448;32.074;2022-08-30T14:24:09;26.90;68.40
52036;DHT22;38046;49.448;32.074;2022-08-30T14:26:37;26.90;68.40
52036;DHT22;38046;49.448;32.074;2022-08-30T14:29:06;26.90;68.00
52036;DHT22;38046;49.448;32.074;2022-08-30T14:31:33;26.90;67.80
52036;DHT22;38046;49.448;32.074;2022-08-30T14:33:59;26.80;67.70
52036;DHT22;38046;49.448;32.074;2022-08-30T14:36:25;26.90;67.70
52036;DHT22;38046;49.448;32.074;2022-08-30T14:38:50;26.90;67.80
52036;DHT22;38046;49.448;32.074;2022-08-30T14:41:16;26.90;67.80
52036;DHT22;38046;49.448;32.074;2022-08-30T14:43:42;26.90;68.00
52036;DHT22;38046;49.448;32.074;2022-08-30T14:46:08;26.90;68.00
52036;DHT22;38046;49.448;32.074;2022-08-30T14:48:35;26.80;67.90
52036;DHT22;38046;49.448;32.074;2022-08-30T14:51:02;26.80;68.00
52036;DHT22;38046;49.448;32.074;2022-08-30T14:53:27;26.80;67.70
52036;DHT22;38046;49.448;32.074;2022-08-30T14:55:53;26.80;67.60
52036;DHT22;38046;49.448;32.074;2022-08-30T14:58:19;26.80;67.60
52036;DHT22;38046;49.448;32.074;2022-08-30T15:00:53;26.80;67.50
52036;DHT22;38046;49.448;32.074;2022-08-30T15:03:19;26.80;67.30
52036;DHT22;38046;49.448;32.074;2022-08-30T15:05:51;26.80;67.30
52036;DHT22;38046;49.448;32.074;2022-08-30T15:08:16;26.80;67.10
52036;DHT22;38046;49.448;32.074;2022-08-30T15:10:42;26.80;67.20
52036;DHT22;38046;49.448;32.074;2022-08-30T15:13:08;26.80;67.10
52036;DHT22;38046;49.448;32.074;2022-08-30T15:15:34;26.80;67.10
52036;DHT22;38046;49.448;32.074;2022-08-30T15:17:59;26.70;67.30
52036;DHT22;38046;49.448;32.074;2022-08-30T15:20:25;26.70;67.40
52036;DHT22;38046;49.448;32.074;2022-08-30T15:22:52;26.70;67.70
52036;DHT22;38046;49.448;32.074;2022-08-30T15:25:18;26.70;67.80
52036;DHT22;38046;49.448;32.074;2022-08-30T15:27:43;26.70;67.90
52036;DHT22;38046;49.448;32.074;2022-08-30T15:30:10;26.70;68.20
52036;DHT22;38046;49.448;32.074;2022-08-30T15:32:37;26.60;68.10
52036;DHT22;38046;49.448;32.074;2022-08-30T15:35:03;26.60;68.10
52036;DHT22;38046;49.448;32.074;2022-08-30T15:37:29;26.60;68.10
52036;DHT22;38046;49.448;32.074;2022-08-30T15:39:55;26.60;68.00
52036;DHT22;38046;49.448;32.074;2022-08-30T15:42:20;26.50;67.90
52036;DHT22;38046;49.448;32.074;2022-08-30T15:44:50;26.50;67.80
52036;DHT22;38046;49.448;32.074;2022-08-30T15:47:18;26.50;67.70
52036;DHT22;38046;49.448;32.074;2022-08-30T15:49:56;26.50;67.60
52036;DHT22;38046;49.448;32.074;2022-08-30T15:52:23;26.40;67.40
52036;DHT22;38046;49.448;32.074;2022-08-30T15:54:48;26.50;67.20
52036;DHT22;38046;49.448;32.074;2022-08-30T15:57:14;26.40;67.00
52036;DHT22;38046;49.448;32.074;2022-08-30T15:59:40;26.40;66.90
52036;DHT22;38046;49.448;32.074;2022-08-30T16:02:06;26.40;66.90
52036;DHT22;38046;49.448;32.074;2022-08-30T16:04:32;26.40;66.90
52036;DHT22;38046;49.448;32.074;2022-08-30T16:06:58;26.40;66.70
52036;DHT22;38046;49.448;32.074;2022-08-30T16:09:24;26.40;66.60
52036;DHT22;38046;49.448;32.074;2022-08-30T16:11:51;26.30;66.40
52036;DHT22;38046;49.448;32.074;2022-08-30T16:14:17;26.30;66.40
52036;DHT22;38046;49.448;32.074;2022-08-30T16:16:45;26.30;66.30
52036;DHT22;38046;49.448;32.074;2022-08-30T16:19:11;26.30;66.10
52036;DHT22;38046;49.448;32.074;2022-08-30T16:21:38;26.20;66.00
52036;DHT22;38046;49.448;32.074;2022-08-30T16:24:05;26.20;65.90
52036;DHT22;38046;49.448;32.074;2022-08-30T16:26:33;26.20;65.70
52036;DHT22;38046;49.448;32.074;2022-08-30T16:28:59;26.20;65.70
52036;DHT22;38046;49.448;32.074;2022-08-30T16:31:27;26.10;65.50
52036;DHT22;38046;49.448;32.074;2022-08-30T16:33:54;26.10;65.50
52036;DHT22;38046;49.448;32.074;2022-08-30T16:36:21;26.10;65.50
52036;DHT22;38046;49.448;32.074;2022-08-30T16:38:48;26.10;65.30
52036;DHT22;38046;49.448;32.074;2022-08-30T16:41:14;26.00;65.20
52036;DHT22;38046;49.448;32.074;2022-08-30T16:43:40;26.00;65.10
52036;DHT22;38046;49.448;32.074;2022-08-30T16:46:12;26.00;65.00
52036;DHT22;38046;49.448;32.074;2022-08-30T16:48:39;25.90;64.80
52036;DHT22;38046;49.448;32.074;2022-08-30T16:51:08;25.90;64.70
52036;DHT22;38046;49.448;32.074;2022-08-30T16:53:34;25.80;64.30
52036;DHT22;38046;49.448;32.074;2022-08-30T16:56:08;25.80;64.20
52036;DHT22;38046;49.448;32.074;2022-08-30T16:58:34;25.80;64.10
52036;DHT22;38046;49.448;32.074;2022-08-30T17:01:00;25.80;63.90
52036;DHT22;38046;49.448;32.074;2022-08-30T17:03:25;25.70;63.70
52036;DHT22;38046;49.448;32.074;2022-08-30T17:05:51;25.70;63.60
52036;DHT22;38046;49.448;32.074;2022-08-30T17:08:17;25.70;63.60